Time;durP1;ratioP1;P1;durP2;ratioP2;P2;SDS_P1;SDS_P2;PMS_P1;PMS_P2;Temp;Humidity;BMP_temperature;BMP_pressure;BME280_temperature;BME280_humidity;BME280_pressure;Samples;Min_cycle;Max_cycle;Signal;HPM_P1;HPM_P2
2023/05/01 00:00:22;;;;;;;7.35;3.55;;;;;;;;;;5025576;28;20061;-75
2023/05/01 00:02:48;;;;;;;7.10;3.83;;;;;;;;;;5024857;28;20054;-75
2023/05/01 00:05:15;;;;;;;12.75;3.83;;;;;;;;;;5026472;28;20056;-75
2023/05/01 00:07:41;;;;;;;6.88;3.38;;;;;;;;;;5024741;28;20068;-75
2023/05/01 00:10:08;;;;;;;7.10;3.55;;;;;;;;;;5025826;28;20054;-75
2023/05/01 00:12:34;;;;;;;9.00;3.78;;;;;;;;;;5021965;28;20056;-75
2023/05/01 00:15:00;;;;;;;8.80;3.60;;;;;;;;;;5023206;28;20134;-75
2023/05/01 00:17:27;;;;;;;6.00;3.20;;;;;;;;;;5025085;28;20050;-75
2023/05/01 00:19:53;;;;;;;8.75;3.58;;;;;;;;;;5025553;28;20666;-76
2023/05/01 00:22:20;;;;;;;7.07;2.85;;;;;;;;;;5026395;28;20137;-76
2023/05/01 00:24:47;;;;;;;6.90;2.88;;;;;;;;;;5026017;28;20062;-75
2023/05/01 00:27:14;;;;;;;5.82;2.63;;;;;;;;;;5020825;28;20049;-75
2023/05/01 00:29:41;;;;;;;6.75;3.00;;;;;;;;;;5024038;28;20054;-75
2023/05/01 00:32:07;;;;;;;7.05;3.20;;;;;;;;;;5025914;28;20058;-75
2023/05/01 00:34:33;;;;;;;5.47;2.60;;;;;;;;;;5026329;28;20619;-75
2023/05/01 00:37:00;;;;;;;5.22;2.97;;;;;;;;;;5023103;28;20049;-75
2023/05/01 00:39:26;;;;;;;5.72;3.00;;;;;;;;;;5023000;28;20058;-75
2023/05/01 00:41:53;;;;;;;5.50;3.22;;;;;;;;;;5026376;28;20080;-75
2023/05/01 00:44:20;;;;;;;5.70;3.10;;;;;;;;;;5025764;28;20174;-75
2023/05/01 00:46:46;;;;;;;6.70;3.20;;;;;;;;;;5023796;28;20054;-75
2023/05/01 00:49:12;;;;;;;6.10;3.30;;;;;;;;;;5021614;28;20057;-75
2023/05/01 00:51:40;;;;;;;9.73;3.15;;;;;;;;;;5025046;28;20081;-74
2023/05/01 00:54:06;;;;;;;7.75;3.63;;;;;;;;;;5025971;28;20093;-75
2023/05/01 00:56:32;;;;;;;5.75;2.80;;;;;;;;;;5022520;28;20050;-75
2023/05/01 00:58:59;;;;;;;6.00;3.13;;;;;;;;;;5024220;28;20050;-75
2023/05/01 01:01:25;;;;;;;5.05;2.95;;;;;;;;;;5022612;28;20058;-75
2023/05/01 01:03:53;;;;;;;6.18;2.85;;;;;;;;;;5026151;28;20078;-75
2023/05/01 01:06:32;;;;;;;7.45;3.30;;;;;;;;;;5021376;28;20513;-75
2023/05/01 01:09:15;;;;;;;7.30;2.90;;;;;;;;;;5023868;28;20057;-75
2023/05/01 01:11:45;;;;;;;6.40;3.25;;;;;;;;;;5019291;28;20054;-75
2023/05/01 01:14:16;;;;;;;8.45;3.28;;;;;;;;;;5022992;28;20054;-75
2023/05/01 01:17:03;;;;;;;7.20;3.00;;;;;;;;;;5023259;28;20164;-75
2023/05/01 01:19:48;;;;;;;7.38;3.30;;;;;;;;;;5024451;28;20423;-75
2023/05/01 01:22:17;;;;;;;7.55;3.22;;;;;;;;;;5024576;28;20457;-74
2023/05/01 01:24:53;;;;;;;7.20;3.47;;;;;;;;;;5042978;28;20077;-75
2023/05/01 01:27:19;;;;;;;7.15;3.28;;;;;;;;;;5035777;28;20054;-75
2023/05/01 01:29:54;;;;;;;6.53;3.72;;;;;;;;;;5022691;28;20054;-75
2023/05/01 01:32:21;;;;;;;7.47;3.53;;;;;;;;;;5016675;28;20147;-75
2023/05/01 01:34:50;;;;;;;7.95;3.47;;;;;;;;;;5022125;28;20234;-75
2023/05/01 01:37:19;;;;;;;8.70;3.63;;;;;;;;;;5018059;28;20502;-74
2023/05/01 01:39:51;;;;;;;7.38;3.58;;;;;;;;;;5021167;28;20054;-75
2023/05/01 01:42:19;;;;;;;6.20;2.97;;;;;;;;;;5023325;28;20086;-75
2023/05/01 01:44:53;;;;;;;8.20;3.00;;;;;;;;;;5023787;28;20564;-75
2023/05/01 01:47:20;;;;;;;6.15;3.05;;;;;;;;;;5021044;28;20053;-74
2023/05/01 01:49:48;;;;;;;5.95;3.40;;;;;;;;;;5021629;28;21654;-75
2023/05/01 01:52:16;;;;;;;7.88;3.10;;;;;;;;;;5022396;28;20057;-75
2023/05/01 01:54:44;;;;;;;7.82;3.80;;;;;;;;;;5022520;28;20103;-75
2023/05/01 01:57:11;;;;;;;8.00;4.00;;;;;;;;;;5029436;28;20146;-75
2023/05/01 01:59:39;;;;;;;6.47;4.25;;;;;;;;;;5038286;28;20885;-75
2023/05/01 02:02:06;;;;;;;6.18;3.70;;;;;;;;;;5020206;28;20054;-75
2023/05/01 02:04:33;;;;;;;7.32;3.90;;;;;;;;;;5020466;28;20633;-75
2023/05/01 02:07:00;;;;;;;7.05;3.28;;;;;;;;;;5022054;28;20549;-75
2023/05/01 02:09:27;;;;;;;7.45;3.50;;;;;;;;;;5022732;28;20061;-75
2023/05/01 02:11:57;;;;;;;6.47;3.28;;;;;;;;;;5023636;28;20073;-75
2023/05/01 02:14:25;;;;;;;5.28;3.30;;;;;;;;;;5022227;28;20137;-75
2023/05/01 02:16:51;;;;;;;5.57;3.35;;;;;;;;;;5021799;28;20179;-75
2023/05/01 02:19:18;;;;;;;5.60;3.28;;;;;;;;;;5023395;28;20097;-75
2023/05/01 02:21:45;;;;;;;6.40;3.08;;;;;;;;;;5022317;28;20054;-75
2023/05/01 02:24:12;;;;;;;10.50;3.25;;;;;;;;;;5018446;28;20579;-75
2023/05/01 02:26:44;;;;;;;6.38;3.58;;;;;;;;;;5020406;28;20054;-75
2023/05/01 02:29:10;;;;;;;5.80;3.00;;;;;;;;;;5022737;28;20599;-75
2023/05/01 02:31:37;;;;;;;5.53;2.88;;;;;;;;;;5023587;28;20862;-75
2023/05/01 02:34:03;;;;;;;4.72;3.08;;;;;;;;;;5036791;28;20472;-75
2023/05/01 02:36:32;;;;;;;6.05;3.40;;;;;;;;;;5022905;28;20056;-75
2023/05/01 02:38:58;;;;;;;5.78;3.42;;;;;;;;;;5022955;28;20049;-75
2023/05/01 02:41:26;;;;;;;7.32;3.50;;;;;;;;;;5023217;28;20049;-75
2023/05/01 02:43:55;;;;;;;6.75;3.50;;;;;;;;;;5021212;28;20725;-75
2023/05/01 02:46:23;;;;;;;6.93;3.25;;;;;;;;;;5021060;28;20061;-76
2023/05/01 02:48:50;;;;;;;7.70;3.80;;;;;;;;;;5021268;28;20080;-75
2023/05/01 02:51:18;;;;;;;5.88;3.47;;;;;;;;;;5021067;28;20065;-75
2023/05/01 02:53:45;;;;;;;7.63;3.50;;;;;;;;;;5020162;28;20054;-75
2023/05/01 02:56:11;;;;;;;7.65;3.53;;;;;;;;;;5020443;28;20964;-75
2023/05/01 02:58:37;;;;;;;6.68;3.47;;;;;;;;;;5022038;28;20053;-76
2023/05/01 03:01:04;;;;;;;6.88;3.65;;;;;;;;;;5022325;28;20084;-75
2023/05/01 03:03:30;;;;;;;6.25;3.80;;;;;;;;;;5022047;28;20141;-75
2023/05/01 03:05:57;;;;;;;6.45;3.42;;;;;;;;;;5022975;28;20058;-75
2023/05/01 03:08:23;;;;;;;6.75;3.50;;;;;;;;;;5022496;28;20064;-75
2023/05/01 03:10:50;;;;;;;7.55;3.40;;;;;;;;;;5023953;28;20057;-75
2023/05/01 03:13:16;;;;;;;6.45;3.33;;;;;;;;;;5020512;28;20062;-75
2023/05/01 03:15:43;;;;;;;6.85;3.25;;;;;;;;;;5023520;28;20089;-75
2023/05/01 03:18:09;;;;;;;7.00;3.30;;;;;;;;;;5021853;28;20050;-74
2023/05/01 03:20:36;;;;;;;6.95;3.45;;;;;;;;;;5022920;28;20567;-75
2023/05/01 03:23:02;;;;;;;7.25;3.40;;;;;;;;;;5021182;28;20065;-75
2023/05/01 03:25:28;;;;;;;9.65;3.75;;;;;;;;;;5022304;28;20053;-75
2023/05/01 03:27:55;;;;;;;9.70;3.97;;;;;;;;;;5021145;28;20065;-75
2023/05/01 03:30:21;;;;;;;6.63;3.55;;;;;;;;;;5021558;28;20054;-75
2023/05/01 03:32:47;;;;;;;6.53;3.65;;;;;;;;;;5021744;28;20104;-76
2023/05/01 03:35:14;;;;;;;8.48;4.00;;;;;;;;;;5023072;28;20464;-75
2023/05/01 03:37:40;;;;;;;11.63;3.65;;;;;;;;;;5021546;28;20105;-75
2023/05/01 03:40:07;;;;;;;7.10;3.42;;;;;;;;;;5023674;28;20054;-75
2023/05/01 03:42:34;;;;;;;8.45;3.30;;;;;;;;;;5020798;28;20053;-75
2023/05/01 03:45:00;;;;;;;9.75;3.75;;;;;;;;;;5022451;28;20053;-75
2023/05/01 03:47:26;;;;;;;8.98;3.45;;;;;;;;;;5021420;28;20057;-76
2023/05/01 03:49:53;;;;;;;8.02;3.80;;;;;;;;;;5021566;28;20061;-75
2023/05/01 03:52:19;;;;;;;9.02;3.78;;;;;;;;;;5020636;28;20500;-75
2023/05/01 03:54:46;;;;;;;9.02;4.47;;;;;;;;;;5021949;28;20064;-75
2023/05/01 03:57:13;;;;;;;8.15;3.60;;;;;;;;;;5033041;28;20515;-75
2023/05/01 03:59:42;;;;;;;7.82;3.80;;;;;;;;;;5026628;28;20054;-75
2023/05/01 04:02:09;;;;;;;8.93;3.70;;;;;;;;;;5025367;28;20050;-75
2023/05/01 04:04:35;;;;;;;7.32;3.47;;;;;;;;;;5025838;28;20054;-75
2023/05/01 04:07:02;;;;;;;6.07;3.53;;;;;;;;;;5024627;28;20124;-75
2023/05/01 04:09:31;;;;;;;6.00;3.53;;;;;;;;;;5025452;28;20046;-75
2023/05/01 04:11:57;;;;;;;7.57;4.05;;;;;;;;;;5024932;28;20564;-75
2023/05/01 04:14:24;;;;;;;6.38;3.70;;;;;;;;;;5025080;28;20053;-75
2023/05/01 04:16:50;;;;;;;6.95;3.70;;;;;;;;;;5023879;28;20046;-76
2023/05/01 04:19:17;;;;;;;10.32;4.00;;;;;;;;;;5024455;28;20061;-76
2023/05/01 04:21:43;;;;;;;5.45;3.33;;;;;;;;;;5024371;28;20068;-75
2023/05/01 04:24:09;;;;;;;9.60;3.90;;;;;;;;;;5022557;28;20054;-76
2023/05/01 04:26:37;;;;;;;9.27;3.80;;;;;;;;;;5019561;28;20112;-76
2023/05/01 04:29:04;;;;;;;7.70;3.53;;;;;;;;;;5024723;28;20054;-75
2023/05/01 04:31:30;;;;;;;7.57;3.85;;;;;;;;;;5024111;28;20532;-75
2023/05/01 04:33:57;;;;;;;10.00;4.03;;;;;;;;;;5023962;28;20667;-76
2023/05/01 04:36:24;;;;;;;11.98;4.45;;;;;;;;;;5022167;28;20108;-76
2023/05/01 04:38:50;;;;;;;9.88;4.85;;;;;;;;;;5024620;28;21003;-75
2023/05/01 04:41:16;;;;;;;16.08;5.93;;;;;;;;;;5022720;28;20057;-75
2023/05/01 04:43:42;;;;;;;12.82;5.25;;;;;;;;;;5024744;28;20060;-76
2023/05/01 04:46:09;;;;;;;15.10;5.60;;;;;;;;;;5024759;28;20054;-76
2023/05/01 04:48:35;;;;;;;16.75;5.88;;;;;;;;;;5020676;28;20050;-75
2023/05/01 04:51:02;;;;;;;11.68;5.18;;;;;;;;;;5023619;28;20580;-75
2023/05/01 04:53:29;;;;;;;11.63;4.78;;;;;;;;;;5024186;28;20053;-76
2023/05/01 04:55:56;;;;;;;11.65;4.57;;;;;;;;;;5015702;28;20058;-75
2023/05/01 04:58:23;;;;;;;10.77;4.53;;;;;;;;;;5024409;28;20110;-76
2023/05/01 05:00:49;;;;;;;11.02;4.47;;;;;;;;;;5023313;28;20056;-76
2023/05/01 05:03:17;;;;;;;8.88;4.13;;;;;;;;;;5024789;28;20050;-75
2023/05/01 05:05:45;;;;;;;11.32;4.95;;;;;;;;;;5023675;28;20496;-75
2023/05/01 05:08:11;;;;;;;12.88;5.13;;;;;;;;;;5023872;28;20160;-76
2023/05/01 05:10:38;;;;;;;11.98;4.88;;;;;;;;;;5024500;28;21032;-76
2023/05/01 05:13:04;;;;;;;12.43;4.78;;;;;;;;;;5022818;28;20057;-75
2023/05/01 05:15:30;;;;;;;10.48;4.57;;;;;;;;;;5021066;28;20422;-76
2023/05/01 05:17:57;;;;;;;11.57;4.07;;;;;;;;;;5024502;28;20057;-76
2023/05/01 05:20:23;;;;;;;11.93;4.30;;;;;;;;;;5024735;28;20058;-76
2023/05/01 05:22:50;;;;;;;9.25;4.25;;;;;;;;;;5027356;28;20050;-77
2023/05/01 05:25:16;;;;;;;7.95;4.20;;;;;;;;;;5024614;28;20058;-77
2023/05/01 05:27:42;;;;;;;12.82;4.57;;;;;;;;;;5023988;28;20054;-76
2023/05/01 05:30:09;;;;;;;9.82;4.07;;;;;;;;;;5022535;28;20172;-76
2023/05/01 05:32:36;;;;;;;15.32;4.47;;;;;;;;;;5022141;28;20057;-76
2023/05/01 05:35:03;;;;;;;15.27;4.50;;;;;;;;;;5023624;28;20061;-76
2023/05/01 05:37:30;;;;;;;9.48;4.30;;;;;;;;;;5022184;28;20058;-77
2023/05/01 05:39:56;;;;;;;12.65;4.40;;;;;;;;;;5022308;28;20140;-76
2023/05/01 05:42:23;;;;;;;8.57;4.20;;;;;;;;;;5022846;28;20050;-77
2023/05/01 05:44:49;;;;;;;8.95;3.92;;;;;;;;;;5020880;28;20062;-76
2023/05/01 05:47:16;;;;;;;8.60;4.25;;;;;;;;;;5021010;28;21015;-77
2023/05/01 05:49:42;;;;;;;11.23;4.35;;;;;;;;;;5022607;28;20124;-77
2023/05/01 05:52:09;;;;;;;10.77;3.80;;;;;;;;;;5024421;28;20571;-76
2023/05/01 05:54:35;;;;;;;11.15;4.43;;;;;;;;;;5025375;28;20050;-76
2023/05/01 05:57:02;;;;;;;8.57;3.97;;;;;;;;;;5036964;28;20053;-76
2023/05/01 05:59:29;;;;;;;14.07;4.20;;;;;;;;;;5022174;28;20509;-76
2023/05/01 06:01:55;;;;;;;10.18;4.57;;;;;;;;;;5024284;28;20046;-76
2023/05/01 06:04:21;;;;;;;13.57;4.53;;;;;;;;;;5041528;28;20140;-76
2023/05/01 06:06:48;;;;;;;12.38;4.05;;;;;;;;;;5033249;28;20069;-76
2023/05/01 06:09:16;;;;;;;12.63;4.30;;;;;;;;;;5023484;28;20069;-76
2023/05/01 06:11:42;;;;;;;11.73;4.20;;;;;;;;;;5023973;28;20062;-76
2023/05/01 06:14:08;;;;;;;11.90;4.35;;;;;;;;;;5027182;28;20157;-76
2023/05/01 06:16:35;;;;;;;13.82;4.72;;;;;;;;;;5024305;28;20038;-76
2023/05/01 06:19:02;;;;;;;11.43;4.65;;;;;;;;;;5021531;28;20077;-76
2023/05/01 06:21:30;;;;;;;12.43;4.97;;;;;;;;;;5022678;28;20050;-77
2023/05/01 06:23:57;;;;;;;15.68;4.93;;;;;;;;;;5023593;28;20053;-77
2023/05/01 06:26:25;;;;;;;10.80;4.88;;;;;;;;;;5023691;28;20150;-76
2023/05/01 06:28:51;;;;;;;12.70;4.60;;;;;;;;;;5039891;28;20050;-76
2023/05/01 06:31:17;;;;;;;12.60;5.15;;;;;;;;;;5043503;28;20053;-77
2023/05/01 06:33:43;;;;;;;13.95;4.82;;;;;;;;;;5030004;28;20874;-76
2023/05/01 06:36:10;;;;;;;13.52;4.45;;;;;;;;;;5023043;28;20057;-76
2023/05/01 06:38:36;;;;;;;9.93;4.60;;;;;;;;;;5023035;28;20144;-76
2023/05/01 06:41:03;;;;;;;10.57;4.72;;;;;;;;;;5022389;28;20810;-76
2023/05/01 06:43:30;;;;;;;10.25;4.20;;;;;;;;;;5023517;28;20056;-77
2023/05/01 06:45:57;;;;;;;13.23;4.15;;;;;;;;;;5018153;28;20131;-77
2023/05/01 06:48:23;;;;;;;15.25;4.22;;;;;;;;;;5022123;28;21255;-77
2023/05/01 06:50:49;;;;;;;12.50;5.03;;;;;;;;;;5022072;28;20056;-76
2023/05/01 06:53:16;;;;;;;11.77;4.47;;;;;;;;;;5023075;28;20060;-76
2023/05/01 06:55:42;;;;;;;12.35;4.05;;;;;;;;;;5023299;28;20162;-76
2023/05/01 06:58:09;;;;;;;9.30;4.10;;;;;;;;;;5019855;28;20141;-76
2023/05/01 07:00:49;;;;;;;10.32;4.18;;;;;;;;;;5012388;28;20942;-76
2023/05/01 07:03:16;;;;;;;13.30;4.13;;;;;;;;;;5024233;28;20105;-76
2023/05/01 07:05:42;;;;;;;15.90;4.47;;;;;;;;;;5024239;28;20056;-76
2023/05/01 07:08:09;;;;;;;9.05;3.70;;;;;;;;;;5020414;28;20046;-77
2023/05/01 07:10:35;;;;;;;7.35;4.10;;;;;;;;;;5035025;28;20116;-76
2023/05/01 07:13:03;;;;;;;13.77;4.40;;;;;;;;;;5022959;28;20521;-77
2023/05/01 07:15:29;;;;;;;10.75;4.60;;;;;;;;;;5022386;28;20061;-76
2023/05/01 07:17:57;;;;;;;14.50;4.53;;;;;;;;;;5021667;28;20513;-77
2023/05/01 07:20:23;;;;;;;12.45;4.70;;;;;;;;;;5020283;28;21322;-77
2023/05/01 07:22:49;;;;;;;12.25;4.35;;;;;;;;;;5017459;28;20054;-77
2023/05/01 07:25:16;;;;;;;12.25;4.60;;;;;;;;;;5018776;28;20058;-76
2023/05/01 07:27:43;;;;;;;9.27;4.57;;;;;;;;;;5022250;28;20836;-76
2023/05/01 07:30:09;;;;;;;14.32;4.80;;;;;;;;;;5025638;28;20065;-76
2023/05/01 07:32:36;;;;;;;14.18;5.30;;;;;;;;;;5027031;28;20049;-76
2023/05/01 07:35:03;;;;;;;16.05;5.07;;;;;;;;;;5021281;28;21050;-76
2023/05/01 07:37:29;;;;;;;9.45;4.82;;;;;;;;;;5036539;28;20054;-77
2023/05/01 07:39:57;;;;;;;10.75;4.63;;;;;;;;;;5047098;28;20102;-76
2023/05/01 07:42:26;;;;;;;9.90;4.60;;;;;;;;;;5042861;28;20061;-76
2023/05/01 07:44:52;;;;;;;9.30;4.90;;;;;;;;;;5027254;28;20053;-76
2023/05/01 07:47:18;;;;;;;11.15;5.20;;;;;;;;;;5026936;28;20046;-77
2023/05/01 07:49:45;;;;;;;12.88;5.00;;;;;;;;;;5026093;28;20060;-77
2023/05/01 07:52:11;;;;;;;12.63;5.05;;;;;;;;;;5026462;28;20065;-77
2023/05/01 07:54:37;;;;;;;12.55;5.45;;;;;;;;;;5025514;28;20057;-77
2023/05/01 07:57:05;;;;;;;10.00;5.68;;;;;;;;;;5027671;28;20061;-76
2023/05/01 07:59:31;;;;;;;13.90;5.97;;;;;;;;;;5026828;28;20165;-76
2023/05/01 08:01:57;;;;;;;10.80;5.07;;;;;;;;;;5026801;28;20057;-77
2023/05/01 08:04:24;;;;;;;10.80;4.95;;;;;;;;;;5027262;28;20058;-76
2023/05/01 08:06:51;;;;;;;13.57;5.65;;;;;;;;;;5026626;28;21368;-76
2023/05/01 08:09:17;;;;;;;10.35;4.75;;;;;;;;;;5025785;28;20054;-77
2023/05/01 08:11:44;;;;;;;11.80;5.00;;;;;;;;;;5026931;28;20066;-76
2023/05/01 08:14:10;;;;;;;16.60;4.88;;;;;;;;;;5025106;28;20049;-77
2023/05/01 08:16:36;;;;;;;14.63;4.85;;;;;;;;;;5026872;28;20051;-76
2023/05/01 08:19:03;;;;;;;11.27;4.65;;;;;;;;;;5026518;28;20058;-77
2023/05/01 08:21:30;;;;;;;10.23;4.93;;;;;;;;;;5026824;28;20149;-77
2023/05/01 08:23:56;;;;;;;12.27;5.03;;;;;;;;;;5026059;28;20060;-77
2023/05/01 08:26:22;;;;;;;14.50;5.45;;;;;;;;;;5025849;28;20116;-77
2023/05/01 08:28:49;;;;;;;11.48;5.45;;;;;;;;;;5025645;28;20068;-77
2023/05/01 08:31:16;;;;;;;11.77;5.00;;;;;;;;;;5024967;28;20054;-76
2023/05/01 08:33:43;;;;;;;11.45;5.22;;;;;;;;;;5026249;28;20129;-78
2023/05/01 08:36:10;;;;;;;10.05;5.07;;;;;;;;;;5024534;28;20053;-77
2023/05/01 08:38:36;;;;;;;14.00;5.03;;;;;;;;;;5025007;28;20144;-77
2023/05/01 08:41:03;;;;;;;12.50;5.43;;;;;;;;;;5025724;28;20096;-77
2023/05/01 08:43:30;;;;;;;12.93;6.22;;;;;;;;;;5025542;28;20054;-77
2023/05/01 08:45:57;;;;;;;15.38;5.53;;;;;;;;;;5022188;28;20140;-77
2023/05/01 08:48:24;;;;;;;13.05;5.60;;;;;;;;;;5025011;28;20085;-79
2023/05/01 08:50:52;;;;;;;11.82;5.13;;;;;;;;;;5015675;28;20137;-77
2023/05/01 08:53:19;;;;;;;12.15;5.50;;;;;;;;;;5025636;28;20531;-81
2023/05/01 08:55:46;;;;;;;10.90;5.07;;;;;;;;;;5026085;28;20053;-77
2023/05/01 08:58:13;;;;;;;10.18;4.90;;;;;;;;;;5025885;28;20509;-77
2023/05/01 09:00:40;;;;;;;10.73;5.20;;;;;;;;;;5021271;28;20504;-77
2023/05/01 09:03:07;;;;;;;9.85;5.10;;;;;;;;;;5021178;28;20061;-78
2023/05/01 09:05:34;;;;;;;11.45;5.32;;;;;;;;;;5020951;28;20053;-78
2023/05/01 09:08:00;;;;;;;10.27;5.30;;;;;;;;;;5021514;28;20055;-77
2023/05/01 09:10:28;;;;;;;10.77;5.20;;;;;;;;;;5023278;28;20057;-79
2023/05/01 09:12:59;;;;;;;8.50;5.32;;;;;;;;;;5020935;28;21000;-77
2023/05/01 09:15:27;;;;;;;13.90;5.30;;;;;;;;;;5022411;28;20685;-76
2023/05/01 09:17:53;;;;;;;9.65;4.72;;;;;;;;;;5039757;28;20132;-76
2023/05/01 09:20:20;;;;;;;12.38;4.97;;;;;;;;;;5025278;28;20050;-77
2023/05/01 09:22:49;;;;;;;9.73;4.75;;;;;;;;;;5025868;28;20105;-75
2023/05/01 09:25:17;;;;;;;11.30;4.88;;;;;;;;;;5024026;28;20856;-77
2023/05/01 09:27:43;;;;;;;12.27;4.38;;;;;;;;;;5023263;28;20058;-76
2023/05/01 09:30:28;;;;;;;8.40;4.80;;;;;;;;;;5021792;28;20180;-76
2023/05/01 09:33:10;;;;;;;10.27;4.53;;;;;;;;;;5023502;28;20054;-76
2023/05/01 09:35:50;;;;;;;13.20;5.10;;;;;;;;;;5023567;28;20522;-75
2023/05/01 09:38:22;;;;;;;9.73;5.00;;;;;;;;;;5023845;28;20053;-76
2023/05/01 09:40:49;;;;;;;10.02;4.75;;;;;;;;;;5024669;28;20133;-76
2023/05/01 09:43:25;;;;;;;11.63;5.43;;;;;;;;;;5024231;28;21101;-76
2023/05/01 09:46:03;;;;;;;12.15;4.68;;;;;;;;;;5024527;28;20057;-76
2023/05/01 09:48:30;;;;;;;11.45;5.47;;;;;;;;;;5023772;28;20104;-76
2023/05/01 09:51:00;;;;;;;11.85;4.95;;;;;;;;;;5020866;28;20062;-76
2023/05/01 09:53:37;;;;;;;8.40;4.40;;;;;;;;;;5022155;28;20869;-75
2023/05/01 09:56:03;;;;;;;9.88;4.40;;;;;;;;;;5023179;28;20054;-76
2023/05/01 09:58:30;;;;;;;10.05;4.40;;;;;;;;;;5018993;28;20108;-77
2023/05/01 10:00:56;;;;;;;9.15;4.15;;;;;;;;;;5021212;28;20137;-76
2023/05/01 10:03:25;;;;;;;9.15;4.05;;;;;;;;;;5024568;28;20576;-76
2023/05/01 10:05:55;;;;;;;10.05;4.25;;;;;;;;;;5023192;28;20141;-76
2023/05/01 10:08:23;;;;;;;10.93;4.03;;;;;;;;;;5022491;28;20112;-76
2023/05/01 10:10:58;;;;;;;9.65;3.80;;;;;;;;;;5035392;28;20578;-76
2023/05/01 10:13:25;;;;;;;10.35;3.92;;;;;;;;;;5031757;28;20054;-76
2023/05/01 10:15:51;;;;;;;20.58;4.80;;;;;;;;;;5022441;28;20056;-76
2023/05/01 10:18:18;;;;;;;21.20;4.45;;;;;;;;;;5019308;28;20152;-76
2023/05/01 10:20:45;;;;;;;15.00;4.20;;;;;;;;;;5022833;28;20061;-77
2023/05/01 10:23:11;;;;;;;9.57;4.22;;;;;;;;;;5023722;28;20133;-77
2023/05/01 10:25:38;;;;;;;12.50;4.03;;;;;;;;;;5023477;28;20535;-77
2023/05/01 10:28:05;;;;;;;10.88;3.80;;;;;;;;;;5027580;28;20544;-77
2023/05/01 10:30:32;;;;;;;9.10;4.10;;;;;;;;;;5021002;28;20049;-77
2023/05/01 10:33:01;;;;;;;9.50;3.88;;;;;;;;;;5021081;28;20605;-76
2023/05/01 10:35:32;;;;;;;10.90;4.22;;;;;;;;;;5025040;28;20058;-75
2023/05/01 10:38:07;;;;;;;9.20;3.63;;;;;;;;;;5025294;28;20108;-76
2023/05/01 10:40:39;;;;;;;8.27;3.60;;;;;;;;;;5022608;28;20085;-76
2023/05/01 10:43:18;;;;;;;9.70;3.50;;;;;;;;;;5020734;28;22813;-77
2023/05/01 10:45:45;;;;;;;8.85;3.22;;;;;;;;;;5019238;28;21090;-76
2023/05/01 10:48:32;;;;;;;7.72;3.75;;;;;;;;;;5016475;28;20050;-76
2023/05/01 10:51:11;;;;;;;7.38;3.60;;;;;;;;;;5019510;28;20612;-75
2023/05/01 10:53:37;;;;;;;8.38;3.75;;;;;;;;;;5019690;28;20061;-76
2023/05/01 10:56:05;;;;;;;6.90;3.47;;;;;;;;;;5023721;28;20137;-76
2023/05/01 10:58:34;;;;;;;9.02;3.60;;;;;;;;;;5019577;28;20057;-76
2023/05/01 11:01:20;;;;;;;9.50;3.20;;;;;;;;;;5020334;28;20084;-79
2023/05/01 11:03:46;;;;;;;6.18;2.95;;;;;;;;;;5022555;28;20058;-76
2023/05/01 11:06:13;;;;;;;7.32;3.03;;;;;;;;;;5021920;28;20097;-77
2023/05/01 11:08:40;;;;;;;9.15;3.05;;;;;;;;;;5027084;28;20050;-77
2023/05/01 11:11:18;;;;;;;6.72;2.72;;;;;;;;;;5025860;28;20057;-77
2023/05/01 11:13:56;;;;;;;8.07;2.90;;;;;;;;;;5025580;28;20066;-76
2023/05/01 11:16:38;;;;;;;8.20;2.67;;;;;;;;;;5024698;28;20053;-77
2023/05/01 11:19:06;;;;;;;5.82;2.75;;;;;;;;;;5023864;28;20049;-77
2023/05/01 11:21:33;;;;;;;9.48;3.10;;;;;;;;;;5028863;28;20089;-77
2023/05/01 11:24:00;;;;;;;11.68;3.20;;;;;;;;;;5027791;28;20054;-76
2023/05/01 11:26:31;;;;;;;7.57;2.88;;;;;;;;;;5027632;28;20528;-76
2023/05/01 11:28:58;;;;;;;8.20;3.05;;;;;;;;;;5030189;28;20432;-76
2023/05/01 11:31:25;;;;;;;6.93;3.03;;;;;;;;;;5029359;28;20069;-76
2023/05/01 11:33:54;;;;;;;9.55;3.42;;;;;;;;;;5026924;28;20516;-77
2023/05/01 11:36:21;;;;;;;10.40;3.58;;;;;;;;;;5030152;28;20392;-76
2023/05/01 11:38:51;;;;;;;7.68;3.25;;;;;;;;;;5025933;28;20054;-76
2023/05/01 11:41:21;;;;;;;7.38;3.13;;;;;;;;;;5028530;28;20061;-77
2023/05/01 11:43:52;;;;;;;7.32;2.92;;;;;;;;;;5027024;28;20065;-77
2023/05/01 11:46:18;;;;;;;;;;;;;;;;;;5030918;28;20058;-77
2023/05/01 11:48:47;;;;;;;7.38;3.28;;;;;;;;;;5027287;28;47394;-76
2023/05/01 11:51:14;;;;;;;8.40;2.63;;;;;;;;;;5030318;28;20114;-76
2023/05/01 11:53:40;;;;;;;8.52;2.90;;;;;;;;;;5026748;28;20497;-77
2023/05/01 11:56:23;;;;;;;11.55;3.00;;;;;;;;;;5029981;28;20142;-77
2023/05/01 11:58:53;;;;;;;6.10;2.25;;;;;;;;;;5028128;28;20053;-76
2023/05/01 12:01:19;;;;;;;9.57;2.90;;;;;;;;;;5026349;28;20133;-76
2023/05/01 12:03:45;;;;;;;6.13;2.03;;;;;;;;;;5023239;28;20049;-76
2023/05/01 12:06:12;;;;;;;7.07;2.47;;;;;;;;;;5026067;28;20149;-76
2023/05/01 12:08:44;;;;;;;5.43;2.33;;;;;;;;;;5024245;28;20050;-76
2023/05/01 12:11:10;;;;;;;7.65;2.58;;;;;;;;;;5028251;28;20119;-76
2023/05/01 12:13:37;;;;;;;8.60;3.00;;;;;;;;;;5025444;28;20054;-76
2023/05/01 12:16:04;;;;;;;5.72;2.33;;;;;;;;;;5021877;28;20061;-76
2023/05/01 12:18:31;;;;;;;6.68;2.97;;;;;;;;;;5016748;28;20137;-77
2023/05/01 12:20:57;;;;;;;7.57;3.05;;;;;;;;;;5022140;28;20062;-76
2023/05/01 12:23:33;;;;;;;8.18;3.47;;;;;;;;;;5025353;28;20054;-77
2023/05/01 12:26:02;;;;;;;9.40;4.03;;;;;;;;;;5024947;28;20145;-77
2023/05/01 12:28:29;;;;;;;10.95;4.70;;;;;;;;;;5024269;28;20552;-76
2023/05/01 12:31:00;;;;;;;10.98;4.75;;;;;;;;;;5020537;28;20060;-76
2023/05/01 12:33:30;;;;;;;11.40;5.57;;;;;;;;;;5023371;28;20610;-77
2023/05/01 12:36:07;;;;;;;10.23;4.68;;;;;;;;;;5026826;28;20050;-77
2023/05/01 12:38:33;;;;;;;11.65;4.55;;;;;;;;;;5022609;28;20129;-76
2023/05/01 12:41:00;;;;;;;14.07;5.35;;;;;;;;;;5024049;28;20053;-76
2023/05/01 12:43:30;;;;;;;10.70;5.13;;;;;;;;;;5024086;28;20054;-77
2023/05/01 12:45:56;;;;;;;12.98;5.05;;;;;;;;;;5023860;28;20065;-75
2023/05/01 12:48:23;;;;;;;13.38;5.10;;;;;;;;;;5023498;28;20952;-76
2023/05/01 12:50:53;;;;;;;11.10;5.53;;;;;;;;;;5023227;28;20069;-76
2023/05/01 12:53:22;;;;;;;11.82;5.00;;;;;;;;;;5022626;28;20112;-77
2023/05/01 12:55:49;;;;;;;13.50;5.13;;;;;;;;;;5024150;28;20058;-75
2023/05/01 12:58:16;;;;;;;8.32;4.55;;;;;;;;;;5031597;28;20494;-76
2023/05/01 13:00:43;;;;;;;8.63;4.28;;;;;;;;;;5022779;28;20058;-76
2023/05/01 13:03:10;;;;;;;11.43;4.53;;;;;;;;;;5024737;28;20085;-76
2023/05/01 13:05:36;;;;;;;12.50;4.90;;;;;;;;;;5026845;28;20057;-77
2023/05/01 13:08:02;;;;;;;10.90;4.55;;;;;;;;;;5025992;28;20520;-77
2023/05/01 13:10:30;;;;;;;8.88;4.90;;;;;;;;;;5024822;28;20057;-77
2023/05/01 13:12:57;;;;;;;10.90;4.60;;;;;;;;;;5025456;28;20089;-77
2023/05/01 13:15:23;;;;;;;11.88;4.63;;;;;;;;;;5026523;28;20137;-76
2023/05/01 13:17:50;;;;;;;10.52;4.68;;;;;;;;;;5027368;28;20060;-77
2023/05/01 13:20:23;;;;;;;9.57;4.30;;;;;;;;;;5027371;28;20062;-77
2023/05/01 13:22:50;;;;;;;10.98;4.45;;;;;;;;;;5027343;28;20054;-78
2023/05/01 13:25:18;;;;;;;11.35;4.25;;;;;;;;;;5024322;28;20058;-78
2023/05/01 13:27:48;;;;;;;9.95;4.53;;;;;;;;;;5024747;28;20058;-76
2023/05/01 13:30:15;;;;;;;;;;;;;;;;;;5027409;28;20054;-77
2023/05/01 13:32:41;;;;;;;9.75;4.85;;;;;;;;;;5027962;28;45467;-77
2023/05/01 13:35:08;;;;;;;9.82;4.47;;;;;;;;;;5042569;28;20081;-77
2023/05/01 13:37:34;;;;;;;11.90;5.45;;;;;;;;;;5026055;28;20060;-76
2023/05/01 13:40:02;;;;;;;12.40;4.97;;;;;;;;;;5029943;28;20156;-77
2023/05/01 13:42:28;;;;;;;9.63;4.45;;;;;;;;;;5028236;28;20050;-77
2023/05/01 13:44:55;;;;;;;11.25;4.47;;;;;;;;;;5029037;28;20069;-77
2023/05/01 13:47:25;;;;;;;10.13;4.32;;;;;;;;;;5027516;28;20072;-77
2023/05/01 13:49:51;;;;;;;12.27;4.38;;;;;;;;;;5026471;28;20066;-78
2023/05/01 13:52:19;;;;;;;11.23;4.32;;;;;;;;;;5027535;28;20543;-76
2023/05/01 13:54:46;;;;;;;7.03;4.20;;;;;;;;;;5026887;28;20587;-77
2023/05/01 13:57:14;;;;;;;9.88;4.45;;;;;;;;;;5024069;28;20153;-77
2023/05/01 13:59:41;;;;;;;11.50;4.85;;;;;;;;;;5021757;28;20060;-77
2023/05/01 14:02:28;;;;;;;9.95;4.63;;;;;;;;;;5026103;28;20088;-78
2023/05/01 14:04:55;;;;;;;10.82;4.68;;;;;;;;;;5024915;28;20050;-78
2023/05/01 14:07:25;;;;;;;10.00;4.70;;;;;;;;;;5027825;28;20058;-77
2023/05/01 14:09:53;;;;;;;9.68;4.90;;;;;;;;;;5028847;28;20041;-78
2023/05/01 14:12:27;;;;;;;10.13;4.30;;;;;;;;;;5026355;28;20054;-77
2023/05/01 14:14:53;;;;;;;11.02;4.95;;;;;;;;;;5023343;28;20138;-77
2023/05/01 14:17:30;;;;;;;9.68;4.10;;;;;;;;;;5028453;28;20054;-78
2023/05/01 14:19:56;;;;;;;9.77;4.32;;;;;;;;;;5026066;28;20062;-78
2023/05/01 14:22:24;;;;;;;8.70;4.53;;;;;;;;;;5021887;28;20788;-78
2023/05/01 14:24:51;;;;;;;8.50;3.95;;;;;;;;;;5025720;28;20061;-76
2023/05/01 14:27:18;;;;;;;9.00;3.65;;;;;;;;;;5024758;28;20089;-77
2023/05/01 14:29:44;;;;;;;9.63;3.67;;;;;;;;;;5024122;28;20056;-77
2023/05/01 14:32:12;;;;;;;7.97;3.47;;;;;;;;;;5023339;28;20061;-77
2023/05/01 14:34:40;;;;;;;10.50;3.75;;;;;;;;;;5021432;28;20603;-76
2023/05/01 14:37:10;;;;;;;7.35;2.92;;;;;;;;;;5026447;28;20135;-77
2023/05/01 14:39:38;;;;;;;13.02;3.25;;;;;;;;;;5021153;28;20161;-77
2023/05/01 14:42:04;;;;;;;10.75;3.15;;;;;;;;;;5020496;28;20050;-76